Terminal Aerodrome Forecast
Issued by NWS

Home | Current Version | Previous Version | Text Only | Print | Product List | Glossary On
Versions: 1 2 3 4 5 6 7 8 9 10 11 12 13 14
000
FTUS41 KPBZ 250522
TAFFKL
TAF
KFKL 250522Z 2506/2606 11008KT 6SM -RA OVC015
     FM250700 11006KT 4SM BR OVC010
     FM251300 04003KT P6SM VCSH OVC008
     FM252300 31008KT P6SM OVC010
     FM260400 29005KT P6SM BKN020=

USA.gov is the U.S. government's official web portal to all federal, state and local government web resources and services.